sensor_id;sensor_type;location;lat;lon;timestamp;P1;durP1;ratioP1;P2;durP2;ratioP2
36787;SDS011;22738;45.560;9.434;2023-04-24T00:03:10;8.45;;;4.78;;
36787;SDS011;22738;45.560;9.434;2023-04-24T00:09:51;8.13;;;4.22;;
36787;SDS011;22738;45.560;9.434;2023-04-24T00:16:33;8.48;;;4.88;;
36787;SDS011;22738;45.560;9.434;2023-04-24T00:23:15;10.90;;;5.18;;
36787;SDS011;22738;45.560;9.434;2023-04-24T00:29:56;8.43;;;4.88;;
36787;SDS011;22738;45.560;9.434;2023-04-24T00:36:37;9.52;;;5.15;;
36787;SDS011;22738;45.560;9.434;2023-04-24T00:43:18;6.25;;;4.47;;
36787;SDS011;22738;45.560;9.434;2023-04-24T00:50:01;10.15;;;5.32;;
36787;SDS011;22738;45.560;9.434;2023-04-24T00:56:46;8.63;;;4.57;;
36787;SDS011;22738;45.560;9.434;2023-04-24T01:03:28;10.02;;;5.50;;
36787;SDS011;22738;45.560;9.434;2023-04-24T01:10:12;8.88;;;4.95;;
36787;SDS011;22738;45.560;9.434;2023-04-24T01:16:54;10.23;;;5.95;;
36787;SDS011;22738;45.560;9.434;2023-04-24T01:23:35;9.73;;;5.40;;
36787;SDS011;22738;45.560;9.434;2023-04-24T01:30:16;10.45;;;4.88;;
36787;SDS011;22738;45.560;9.434;2023-04-24T01:36:57;8.63;;;4.57;;
36787;SDS011;22738;45.560;9.434;2023-04-24T01:43:39;6.20;;;4.50;;
36787;SDS011;22738;45.560;9.434;2023-04-24T01:50:20;6.40;;;3.88;;
36787;SDS011;22738;45.560;9.434;2023-04-24T01:57:01;6.13;;;3.92;;
36787;SDS011;22738;45.560;9.434;2023-04-24T02:03:43;9.40;;;3.78;;
36787;SDS011;22738;45.560;9.434;2023-04-24T02:10:24;5.38;;;3.17;;
36787;SDS011;22738;45.560;9.434;2023-04-24T02:17:05;5.78;;;3.42;;
36787;SDS011;22738;45.560;9.434;2023-04-24T02:23:47;5.20;;;3.88;;
36787;SDS011;22738;45.560;9.434;2023-04-24T02:30:28;5.45;;;3.65;;
36787;SDS011;22738;45.560;9.434;2023-04-24T02:37:09;5.25;;;3.47;;
36787;SDS011;22738;45.560;9.434;2023-04-24T02:43:51;5.13;;;3.70;;
36787;SDS011;22738;45.560;9.434;2023-04-24T02:50:32;7.43;;;4.85;;
36787;SDS011;22738;45.560;9.434;2023-04-24T02:57:14;9.43;;;5.25;;
36787;SDS011;22738;45.560;9.434;2023-04-24T03:03:56;7.18;;;4.85;;
36787;SDS011;22738;45.560;9.434;2023-04-24T03:10:39;10.52;;;5.30;;
36787;SDS011;22738;45.560;9.434;2023-04-24T03:17:24;10.67;;;5.77;;
36787;SDS011;22738;45.560;9.434;2023-04-24T03:24:05;12.85;;;6.13;;
36787;SDS011;22738;45.560;9.434;2023-04-24T03:30:46;9.20;;;5.45;;
36787;SDS011;22738;45.560;9.434;2023-04-24T03:37:29;9.05;;;5.90;;
36787;SDS011;22738;45.560;9.434;2023-04-24T03:51:05;9.93;;;6.32;;
36787;SDS011;22738;45.560;9.434;2023-04-24T03:57:47;8.88;;;5.97;;
36787;SDS011;22738;45.560;9.434;2023-04-24T04:04:35;10.23;;;5.78;;
36787;SDS011;22738;45.560;9.434;2023-04-24T04:11:16;11.68;;;7.15;;
36787;SDS011;22738;45.560;9.434;2023-04-24T04:17:59;9.88;;;6.30;;
36787;SDS011;22738;45.560;9.434;2023-04-24T04:24:40;10.35;;;6.25;;
36787;SDS011;22738;45.560;9.434;2023-04-24T04:31:23;9.10;;;3.90;;
36787;SDS011;22738;45.560;9.434;2023-04-24T04:38:04;5.65;;;2.50;;
36787;SDS011;22738;45.560;9.434;2023-04-24T04:45:09;6.22;;;2.15;;
36787;SDS011;22738;45.560;9.434;2023-04-24T04:58:44;4.50;;;2.47;;
36787;SDS011;22738;45.560;9.434;2023-04-24T05:05:28;3.85;;;2.60;;
36787;SDS011;22738;45.560;9.434;2023-04-24T05:12:10;2.83;;;1.52;;
36787;SDS011;22738;45.560;9.434;2023-04-24T05:19:00;3.78;;;1.77;;
36787;SDS011;22738;45.560;9.434;2023-04-24T05:25:48;2.13;;;1.67;;
36787;SDS011;22738;45.560;9.434;2023-04-24T05:32:29;2.05;;;1.45;;
36787;SDS011;22738;45.560;9.434;2023-04-24T05:39:11;1.52;;;1.05;;
36787;SDS011;22738;45.560;9.434;2023-04-24T05:45:52;1.27;;;0.70;;
36787;SDS011;22738;45.560;9.434;2023-04-24T05:52:34;3.78;;;1.20;;
36787;SDS011;22738;45.560;9.434;2023-04-24T05:59:19;1.25;;;0.90;;
36787;SDS011;22738;45.560;9.434;2023-04-24T06:06:00;1.98;;;1.08;;
36787;SDS011;22738;45.560;9.434;2023-04-24T06:12:42;1.63;;;1.00;;
36787;SDS011;22738;45.560;9.434;2023-04-24T06:19:29;2.05;;;1.13;;
36787;SDS011;22738;45.560;9.434;2023-04-24T06:26:11;2.20;;;1.30;;
36787;SDS011;22738;45.560;9.434;2023-04-24T06:32:53;2.30;;;1.20;;
36787;SDS011;22738;45.560;9.434;2023-04-24T06:39:34;1.58;;;1.10;;
36787;SDS011;22738;45.560;9.434;2023-04-24T06:46:15;1.45;;;1.02;;
36787;SDS011;22738;45.560;9.434;2023-04-24T06:52:56;2.83;;;1.20;;
36787;SDS011;22738;45.560;9.434;2023-04-24T06:59:38;1.55;;;1.23;;
36787;SDS011;22738;45.560;9.434;2023-04-24T07:06:19;2.30;;;0.98;;
36787;SDS011;22738;45.560;9.434;2023-04-24T07:13:04;2.55;;;0.93;;
36787;SDS011;22738;45.560;9.434;2023-04-24T07:19:45;2.05;;;1.00;;
36787;SDS011;22738;45.560;9.434;2023-04-24T07:26:28;1.63;;;0.93;;
36787;SDS011;22738;45.560;9.434;2023-04-24T07:33:11;3.25;;;1.25;;
36787;SDS011;22738;45.560;9.434;2023-04-24T07:39:53;1.45;;;0.70;;
36787;SDS011;22738;45.560;9.434;2023-04-24T07:46:35;2.30;;;1.00;;
36787;SDS011;22738;45.560;9.434;2023-04-24T07:53:16;1.58;;;0.60;;
36787;SDS011;22738;45.560;9.434;2023-04-24T07:59:57;5.07;;;0.75;;
36787;SDS011;22738;45.560;9.434;2023-04-24T08:06:38;3.17;;;0.85;;
36787;SDS011;22738;45.560;9.434;2023-04-24T08:13:19;3.70;;;1.42;;
36787;SDS011;22738;45.560;9.434;2023-04-24T08:20:00;1.48;;;0.90;;
36787;SDS011;22738;45.560;9.434;2023-04-24T08:26:45;1.38;;;0.98;;
36787;SDS011;22738;45.560;9.434;2023-04-24T08:33:26;1.50;;;1.08;;
36787;SDS011;22738;45.560;9.434;2023-04-24T08:40:14;3.45;;;1.35;;
36787;SDS011;22738;45.560;9.434;2023-04-24T08:46:57;2.03;;;1.38;;
36787;SDS011;22738;45.560;9.434;2023-04-24T08:53:39;3.42;;;1.40;;
36787;SDS011;22738;45.560;9.434;2023-04-24T09:00:20;5.78;;;1.60;;
36787;SDS011;22738;45.560;9.434;2023-04-24T09:07:03;2.70;;;1.70;;
36787;SDS011;22738;45.560;9.434;2023-04-24T09:13:47;1.73;;;1.40;;
36787;SDS011;22738;45.560;9.434;2023-04-24T09:20:32;3.15;;;1.88;;
36787;SDS011;22738;45.560;9.434;2023-04-24T09:27:13;2.33;;;1.75;;
36787;SDS011;22738;45.560;9.434;2023-04-24T09:33:57;5.10;;;2.03;;
36787;SDS011;22738;45.560;9.434;2023-04-24T09:40:40;4.65;;;2.03;;
36787;SDS011;22738;45.560;9.434;2023-04-24T09:47:22;3.47;;;2.10;;
36787;SDS011;22738;45.560;9.434;2023-04-24T09:54:03;4.88;;;2.72;;
36787;SDS011;22738;45.560;9.434;2023-04-24T10:00:45;5.15;;;2.40;;
36787;SDS011;22738;45.560;9.434;2023-04-24T10:07:26;5.32;;;1.75;;
36787;SDS011;22738;45.560;9.434;2023-04-24T10:14:08;2.38;;;1.90;;
36787;SDS011;22738;45.560;9.434;2023-04-24T10:20:51;5.60;;;1.98;;
36787;SDS011;22738;45.560;9.434;2023-04-24T10:27:35;3.05;;;1.77;;
36787;SDS011;22738;45.560;9.434;2023-04-24T10:34:18;4.10;;;1.53;;
36787;SDS011;22738;45.560;9.434;2023-04-24T10:41:06;4.07;;;2.00;;
36787;SDS011;22738;45.560;9.434;2023-04-24T10:47:57;3.27;;;1.90;;
36787;SDS011;22738;45.560;9.434;2023-04-24T10:54:42;2.95;;;1.63;;
36787;SDS011;22738;45.560;9.434;2023-04-24T11:01:30;2.33;;;1.30;;
36787;SDS011;22738;45.560;9.434;2023-04-24T11:08:21;2.92;;;1.88;;
36787;SDS011;22738;45.560;9.434;2023-04-24T11:15:04;5.07;;;1.63;;
36787;SDS011;22738;45.560;9.434;2023-04-24T11:22:01;3.78;;;1.83;;
36787;SDS011;22738;45.560;9.434;2023-04-24T11:28:45;3.33;;;2.03;;
36787;SDS011;22738;45.560;9.434;2023-04-24T11:35:34;3.80;;;1.60;;
36787;SDS011;22738;45.560;9.434;2023-04-24T11:42:18;1.98;;;1.10;;
36787;SDS011;22738;45.560;9.434;2023-04-24T11:48:59;1.83;;;0.90;;
36787;SDS011;22738;45.560;9.434;2023-04-24T11:55:40;3.45;;;1.00;;
36787;SDS011;22738;45.560;9.434;2023-04-24T12:02:25;0.98;;;0.55;;
36787;SDS011;22738;45.560;9.434;2023-04-24T12:09:08;2.05;;;0.82;;
36787;SDS011;22738;45.560;9.434;2023-04-24T12:15:50;0.70;;;0.60;;
36787;SDS011;22738;45.560;9.434;2023-04-24T12:23:04;1.02;;;0.60;;
36787;SDS011;22738;45.560;9.434;2023-04-24T12:29:50;0.98;;;0.50;;
36787;SDS011;22738;45.560;9.434;2023-04-24T12:36:32;2.43;;;0.50;;
36787;SDS011;22738;45.560;9.434;2023-04-24T12:43:16;1.20;;;0.52;;
36787;SDS011;22738;45.560;9.434;2023-04-24T12:49:59;0.85;;;0.45;;
36787;SDS011;22738;45.560;9.434;2023-04-24T12:56:40;1.65;;;0.40;;
36787;SDS011;22738;45.560;9.434;2023-04-24T13:03:21;0.80;;;0.40;;
36787;SDS011;22738;45.560;9.434;2023-04-24T13:10:03;0.73;;;0.50;;
36787;SDS011;22738;45.560;9.434;2023-04-24T13:16:44;1.45;;;0.47;;
36787;SDS011;22738;45.560;9.434;2023-04-24T13:23:25;0.55;;;0.50;;
36787;SDS011;22738;45.560;9.434;2023-04-24T13:30:07;1.75;;;0.63;;
36787;SDS011;22738;45.560;9.434;2023-04-24T13:36:49;0.35;;;0.35;;
36787;SDS011;22738;45.560;9.434;2023-04-24T13:43:30;2.88;;;0.50;;
36787;SDS011;22738;45.560;9.434;2023-04-24T13:50:11;1.42;;;0.50;;
36787;SDS011;22738;45.560;9.434;2023-04-24T13:56:53;0.60;;;0.43;;
36787;SDS011;22738;45.560;9.434;2023-04-24T14:03:37;1.23;;;0.40;;
36787;SDS011;22738;45.560;9.434;2023-04-24T14:10:18;2.17;;;0.30;;
36787;SDS011;22738;45.560;9.434;2023-04-24T14:16:59;1.65;;;0.40;;
36787;SDS011;22738;45.560;9.434;2023-04-24T14:23:41;0.85;;;0.45;;
36787;SDS011;22738;45.560;9.434;2023-04-24T14:30:22;0.82;;;0.40;;
36787;SDS011;22738;45.560;9.434;2023-04-24T14:37:03;1.75;;;0.32;;
36787;SDS011;22738;45.560;9.434;2023-04-24T14:43:44;0.70;;;0.20;;
36787;SDS011;22738;45.560;9.434;2023-04-24T14:50:25;0.50;;;0.30;;
36787;SDS011;22738;45.560;9.434;2023-04-24T14:57:08;2.30;;;0.50;;
36787;SDS011;22738;45.560;9.434;2023-04-24T15:03:50;2.30;;;0.60;;
36787;SDS011;22738;45.560;9.434;2023-04-24T15:10:31;2.03;;;0.38;;
36787;SDS011;22738;45.560;9.434;2023-04-24T15:17:12;0.68;;;0.30;;
36787;SDS011;22738;45.560;9.434;2023-04-24T15:23:53;0.20;;;0.20;;
36787;SDS011;22738;45.560;9.434;2023-04-24T15:30:34;0.65;;;0.40;;
36787;SDS011;22738;45.560;9.434;2023-04-24T15:37:15;0.28;;;0.20;;
36787;SDS011;22738;45.560;9.434;2023-04-24T15:43:57;0.35;;;0.20;;
36787;SDS011;22738;45.560;9.434;2023-04-24T15:50:38;4.28;;;0.60;;
36787;SDS011;22738;45.560;9.434;2023-04-24T15:57:20;2.55;;;0.57;;
36787;SDS011;22738;45.560;9.434;2023-04-24T16:04:01;2.85;;;0.40;;
36787;SDS011;22738;45.560;9.434;2023-04-24T16:10:42;0.40;;;0.32;;
36787;SDS011;22738;45.560;9.434;2023-04-24T16:17:26;1.20;;;0.47;;
36787;SDS011;22738;45.560;9.434;2023-04-24T16:24:07;1.35;;;0.45;;
36787;SDS011;22738;45.560;9.434;2023-04-24T16:30:49;1.00;;;0.40;;
36787;SDS011;22738;45.560;9.434;2023-04-24T16:37:30;1.08;;;0.50;;
36787;SDS011;22738;45.560;9.434;2023-04-24T16:44:11;1.90;;;0.40;;
36787;SDS011;22738;45.560;9.434;2023-04-24T16:50:53;1.85;;;0.30;;
36787;SDS011;22738;45.560;9.434;2023-04-24T16:57:34;0.85;;;0.40;;
36787;SDS011;22738;45.560;9.434;2023-04-24T17:04:15;0.68;;;0.40;;
36787;SDS011;22738;45.560;9.434;2023-04-24T17:10:56;0.68;;;0.40;;
36787;SDS011;22738;45.560;9.434;2023-04-24T17:17:38;1.58;;;0.50;;
36787;SDS011;22738;45.560;9.434;2023-04-24T17:24:21;3.63;;;0.40;;
36787;SDS011;22738;45.560;9.434;2023-04-24T17:31:02;1.58;;;0.50;;
36787;SDS011;22738;45.560;9.434;2023-04-24T17:37:43;1.33;;;0.55;;
36787;SDS011;22738;45.560;9.434;2023-04-24T17:44:24;0.90;;;0.50;;
36787;SDS011;22738;45.560;9.434;2023-04-24T17:51:06;0.30;;;0.20;;
36787;SDS011;22738;45.560;9.434;2023-04-24T17:57:47;2.70;;;0.52;;
36787;SDS011;22738;45.560;9.434;2023-04-24T18:04:28;0.68;;;0.40;;
36787;SDS011;22738;45.560;9.434;2023-04-24T18:11:09;0.45;;;0.30;;
36787;SDS011;22738;45.560;9.434;2023-04-24T18:17:50;0.22;;;0.22;;
36787;SDS011;22738;45.560;9.434;2023-04-24T18:24:31;0.40;;;0.40;;
36787;SDS011;22738;45.560;9.434;2023-04-24T18:31:15;1.67;;;0.47;;
36787;SDS011;22738;45.560;9.434;2023-04-24T18:37:56;2.58;;;0.50;;
36787;SDS011;22738;45.560;9.434;2023-04-24T18:44:37;2.75;;;0.50;;
36787;SDS011;22738;45.560;9.434;2023-04-24T18:51:20;0.80;;;0.60;;
36787;SDS011;22738;45.560;9.434;2023-04-24T18:58:01;2.47;;;1.70;;
36787;SDS011;22738;45.560;9.434;2023-04-24T19:04:42;0.65;;;0.50;;
36787;SDS011;22738;45.560;9.434;2023-04-24T19:11:24;1.38;;;0.90;;
36787;SDS011;22738;45.560;9.434;2023-04-24T19:18:06;1.67;;;0.75;;
36787;SDS011;22738;45.560;9.434;2023-04-24T19:24:48;1.40;;;0.90;;
36787;SDS011;22738;45.560;9.434;2023-04-24T19:31:29;1.88;;;1.00;;
36787;SDS011;22738;45.560;9.434;2023-04-24T19:38:10;2.00;;;1.05;;
36787;SDS011;22738;45.560;9.434;2023-04-24T19:44:51;2.90;;;1.15;;
36787;SDS011;22738;45.560;9.434;2023-04-24T19:51:32;1.67;;;1.10;;
36787;SDS011;22738;45.560;9.434;2023-04-24T19:58:13;3.00;;;1.52;;
36787;SDS011;22738;45.560;9.434;2023-04-24T20:04:54;3.75;;;1.23;;
36787;SDS011;22738;45.560;9.434;2023-04-24T20:11:35;2.03;;;1.27;;
36787;SDS011;22738;45.560;9.434;2023-04-24T20:18:16;2.65;;;1.33;;
36787;SDS011;22738;45.560;9.434;2023-04-24T20:24:57;3.42;;;1.40;;
36787;SDS011;22738;45.560;9.434;2023-04-24T20:31:38;4.65;;;1.67;;
36787;SDS011;22738;45.560;9.434;2023-04-24T20:38:20;6.88;;;2.25;;
36787;SDS011;22738;45.560;9.434;2023-04-24T20:45:03;11.50;;;2.27;;
36787;SDS011;22738;45.560;9.434;2023-04-24T20:51:48;7.68;;;4.75;;
36787;SDS011;22738;45.560;9.434;2023-04-24T20:58:29;6.25;;;4.15;;
36787;SDS011;22738;45.560;9.434;2023-04-24T21:05:10;9.85;;;5.93;;
36787;SDS011;22738;45.560;9.434;2023-04-24T21:11:51;11.00;;;6.05;;
36787;SDS011;22738;45.560;9.434;2023-04-24T21:18:32;10.18;;;5.88;;
36787;SDS011;22738;45.560;9.434;2023-04-24T21:25:13;10.55;;;6.28;;
36787;SDS011;22738;45.560;9.434;2023-04-24T21:31:54;11.13;;;6.75;;
36787;SDS011;22738;45.560;9.434;2023-04-24T21:38:35;8.70;;;6.10;;
36787;SDS011;22738;45.560;9.434;2023-04-24T21:45:16;11.90;;;5.72;;
36787;SDS011;22738;45.560;9.434;2023-04-24T21:51:57;8.85;;;5.25;;
36787;SDS011;22738;45.560;9.434;2023-04-24T21:58:38;7.00;;;4.45;;
36787;SDS011;22738;45.560;9.434;2023-04-24T22:05:19;6.53;;;3.40;;
36787;SDS011;22738;45.560;9.434;2023-04-24T22:12:00;6.40;;;3.20;;
36787;SDS011;22738;45.560;9.434;2023-04-24T22:18:43;3.63;;;2.55;;
36787;SDS011;22738;45.560;9.434;2023-04-24T22:25:24;4.78;;;2.40;;
36787;SDS011;22738;45.560;9.434;2023-04-24T22:32:05;3.30;;;1.73;;
36787;SDS011;22738;45.560;9.434;2023-04-24T22:38:46;4.25;;;1.85;;
36787;SDS011;22738;45.560;9.434;2023-04-24T22:45:27;2.70;;;1.92;;
36787;SDS011;22738;45.560;9.434;2023-04-24T22:52:08;2.50;;;1.55;;
36787;SDS011;22738;45.560;9.434;2023-04-24T22:58:49;3.35;;;1.90;;
36787;SDS011;22738;45.560;9.434;2023-04-24T23:05:30;5.68;;;1.55;;
36787;SDS011;22738;45.560;9.434;2023-04-24T23:12:11;1.83;;;1.27;;
36787;SDS011;22738;45.560;9.434;2023-04-24T23:18:52;3.05;;;1.40;;
36787;SDS011;22738;45.560;9.434;2023-04-24T23:25:33;3.22;;;1.63;;
36787;SDS011;22738;45.560;9.434;2023-04-24T23:32:14;2.08;;;1.50;;
36787;SDS011;22738;45.560;9.434;2023-04-24T23:38:55;2.05;;;1.23;;
36787;SDS011;22738;45.560;9.434;2023-04-24T23:45:36;3.13;;;1.88;;
36787;SDS011;22738;45.560;9.434;2023-04-24T23:52:17;6.15;;;2.45;;
36787;SDS011;22738;45.560;9.434;2023-04-24T23:58:58;3.60;;;2.47;;
